Time;durP1;ratioP1;P1;durP2;ratioP2;P2;SDS_P1;SDS_P2;PMS_P1;PMS_P2;Temp;Humidity;BMP_temperature;BMP_pressure;BME280_temperature;BME280_humidity;BME280_pressure;Samples;Min_cycle;Max_cycle;Signal;HPM_P1;HPM_P2
2022/12/13 00:01:36;;;;;;;31.05;15.98;;;;;;;;;;5107933;28;20410;-51
2022/12/13 00:04:04;;;;;;;30.02;14.95;;;;;;;;;;5105542;28;20023;-48
2022/12/13 00:06:30;;;;;;;29.58;15.75;;;;;;;;;;5107765;28;20111;-50
2022/12/13 00:08:56;;;;;;;28.67;14.48;;;;;;;;;;5089649;28;20032;-50
2022/12/13 00:11:22;;;;;;;24.42;13.27;;;;;;;;;;5108138;28;20103;-49
2022/12/13 00:13:48;;;;;;;24.65;13.93;;;;;;;;;;5091888;28;20085;-49
2022/12/13 00:16:16;;;;;;;28.77;15.23;;;;;;;;;;5087692;28;20050;-51
2022/12/13 00:18:42;;;;;;;31.23;14.73;;;;;;;;;;5087491;28;20054;-52
2022/12/13 00:21:09;;;;;;;27.00;13.98;;;;;;;;;;5087632;28;20103;-50
2022/12/13 00:23:35;;;;;;;24.92;13.23;;;;;;;;;;5087328;28;20126;-49
2022/12/13 00:26:10;;;;;;;25.60;14.25;;;;;;;;;;5087319;28;20104;-50
2022/12/13 00:28:36;;;;;;;27.55;14.82;;;;;;;;;;5069057;28;20020;-50
2022/12/13 00:31:02;;;;;;;26.52;13.77;;;;;;;;;;5069318;28;20494;-50
2022/12/13 00:33:29;;;;;;;26.88;13.82;;;;;;;;;;5068444;28;20028;-49
2022/12/13 00:35:56;;;;;;;29.15;15.35;;;;;;;;;;5087365;28;20020;-49
2022/12/13 00:38:23;;;;;;;27.17;14.95;;;;;;;;;;5084356;28;20028;-49
2022/12/13 00:40:50;;;;;;;28.38;14.93;;;;;;;;;;5086125;28;20054;-51
2022/12/13 00:43:16;;;;;;;29.25;13.77;;;;;;;;;;5089860;28;20028;-50
2022/12/13 00:45:42;;;;;;;30.35;14.15;;;;;;;;;;5090057;28;20556;-50
2022/12/13 00:48:08;;;;;;;28.27;14.27;;;;;;;;;;5072853;28;20048;-49
2022/12/13 00:50:34;;;;;;;31.17;14.80;;;;;;;;;;5089844;28;20040;-50
2022/12/13 00:53:00;;;;;;;31.70;15.65;;;;;;;;;;5088849;28;20028;-48
2022/12/13 00:55:27;;;;;;;34.20;16.55;;;;;;;;;;5089356;28;20027;-49
2022/12/13 00:57:53;;;;;;;33.90;17.38;;;;;;;;;;5083885;28;20020;-51
2022/12/13 01:00:19;;;;;;;31.85;15.70;;;;;;;;;;5085472;28;20402;-49
2022/12/13 01:02:46;;;;;;;28.13;14.75;;;;;;;;;;5074827;28;20043;-48
2022/12/13 06:12:47;;;;;;;;;;;;;;;;;;5105083;27;20118;-50
2022/12/13 06:15:13;;;;;;;7.20;4.32;;;;;;;;;;5106689;28;19998;-48
2022/12/13 06:17:39;;;;;;;6.75;4.50;;;;;;;;;;5093219;28;20028;-49
2022/12/13 06:20:06;;;;;;;6.97;4.10;;;;;;;;;;5083086;28;20016;-48
2022/12/13 06:22:33;;;;;;;8.90;4.85;;;;;;;;;;5085907;28;20111;-49
2022/12/13 06:25:00;;;;;;;7.20;4.47;;;;;;;;;;5067617;28;20020;-47
2022/12/13 06:27:26;;;;;;;8.10;4.78;;;;;;;;;;5079350;28;20068;-52
2022/12/13 06:29:52;;;;;;;6.38;4.22;;;;;;;;;;5073471;28;20107;-51
2022/12/13 06:32:19;;;;;;;5.95;4.15;;;;;;;;;;5077500;28;20108;-52
2022/12/13 06:34:45;;;;;;;5.07;3.50;;;;;;;;;;5070602;28;20081;-50
2022/12/13 06:37:13;;;;;;;6.13;4.10;;;;;;;;;;5066586;28;20040;-48
2022/12/13 06:39:40;;;;;;;6.78;4.55;;;;;;;;;;5070141;28;20100;-50
2022/12/13 06:42:06;;;;;;;6.20;4.10;;;;;;;;;;5084269;28;20034;-47
2022/12/13 06:44:33;;;;;;;5.57;3.67;;;;;;;;;;5079042;28;20051;-48
2022/12/13 06:47:00;;;;;;;6.25;4.13;;;;;;;;;;5081513;28;20028;-52
2022/12/13 06:49:26;;;;;;;6.03;4.00;;;;;;;;;;5076428;28;20056;-47
2022/12/13 06:51:52;;;;;;;6.13;4.07;;;;;;;;;;5087818;28;20028;-50
2022/12/13 06:54:19;;;;;;;6.18;3.83;;;;;;;;;;5090166;28;20111;-51
2022/12/13 06:56:45;;;;;;;5.00;3.42;;;;;;;;;;5085400;28;20398;-48
2022/12/13 06:59:12;;;;;;;6.20;4.18;;;;;;;;;;5081190;28;20028;-49
2022/12/13 07:01:38;;;;;;;6.15;4.18;;;;;;;;;;5086997;28;20025;-48
2022/12/13 07:04:04;;;;;;;4.75;3.47;;;;;;;;;;5087368;28;20485;-49
2022/12/13 07:06:30;;;;;;;5.65;3.67;;;;;;;;;;5072555;28;20035;-49
2022/12/13 07:08:57;;;;;;;7.47;4.40;;;;;;;;;;5089652;28;20107;-50
2022/12/13 07:11:27;;;;;;;6.38;3.97;;;;;;;;;;5081468;28;20122;-48
2022/12/13 07:13:54;;;;;;;5.93;4.20;;;;;;;;;;5096782;28;20056;-49
2022/12/13 07:16:21;;;;;;;8.02;4.90;;;;;;;;;;5075000;28;20016;-51
2022/12/13 07:18:47;;;;;;;5.82;4.60;;;;;;;;;;5080663;28;20086;-49
2022/12/13 07:21:14;;;;;;;7.88;4.70;;;;;;;;;;5084902;28;20462;-47
2022/12/13 07:23:40;;;;;;;6.85;4.72;;;;;;;;;;5087540;28;20025;-47
2022/12/13 07:26:07;;;;;;;6.78;4.45;;;;;;;;;;5087485;28;20066;-49
2022/12/13 07:28:34;;;;;;;6.60;4.40;;;;;;;;;;5086218;28;20020;-50
2022/12/13 07:31:01;;;;;;;6.72;4.15;;;;;;;;;;5071563;28;20127;-49
2022/12/13 07:33:28;;;;;;;6.65;4.55;;;;;;;;;;5069368;28;20664;-47
2022/12/13 07:36:14;;;;;;;6.45;4.28;;;;;;;;;;5069264;28;20396;-48
2022/12/13 07:38:41;;;;;;;6.78;4.05;;;;;;;;;;5073639;28;20494;-50
2022/12/13 07:41:07;;;;;;;6.82;4.38;;;;;;;;;;5072515;28;20082;-51
2022/12/13 07:43:34;;;;;;;6.30;4.45;;;;;;;;;;5071820;28;20024;-51
2022/12/13 07:46:00;;;;;;;6.25;4.10;;;;;;;;;;5070924;28;20024;-49
2022/12/13 07:48:27;;;;;;;5.55;3.90;;;;;;;;;;5071423;28;20406;-47
2022/12/13 07:50:53;;;;;;;6.57;4.57;;;;;;;;;;5071119;28;20036;-47
2022/12/13 07:53:20;;;;;;;7.18;4.60;;;;;;;;;;5086540;28;20533;-47
2022/12/13 07:55:46;;;;;;;7.70;4.45;;;;;;;;;;5087126;28;20046;-48
2022/12/13 07:58:13;;;;;;;6.60;4.38;;;;;;;;;;5088435;28;20122;-51
2022/12/13 08:00:41;;;;;;;7.13;4.57;;;;;;;;;;5074364;28;20392;-48
2022/12/13 08:03:07;;;;;;;7.85;4.78;;;;;;;;;;5072721;28;20403;-48
2022/12/13 08:05:33;;;;;;;8.18;4.70;;;;;;;;;;5075012;28;20024;-49
2022/12/13 08:08:00;;;;;;;6.78;4.55;;;;;;;;;;5077726;28;20542;-48
2022/12/13 08:10:27;;;;;;;7.43;4.80;;;;;;;;;;5084590;28;20507;-47
2022/12/13 08:12:53;;;;;;;7.20;4.30;;;;;;;;;;5081889;28;20082;-49
2022/12/13 08:15:20;;;;;;;7.05;5.03;;;;;;;;;;5085670;28;20662;-48
2022/12/13 08:17:46;;;;;;;6.55;4.03;;;;;;;;;;5085570;28;20020;-47
2022/12/13 08:20:12;;;;;;;6.07;3.90;;;;;;;;;;5091191;28;20028;-48
2022/12/13 08:22:39;;;;;;;6.63;4.45;;;;;;;;;;5086467;28;20456;-47
2022/12/13 08:25:05;;;;;;;6.90;4.55;;;;;;;;;;5085151;28;20367;-47
2022/12/13 08:27:32;;;;;;;5.60;4.13;;;;;;;;;;5090756;28;20024;-47
2022/12/13 08:29:58;;;;;;;7.00;4.55;;;;;;;;;;5091403;28;20061;-50
2022/12/13 08:32:24;;;;;;;7.80;4.90;;;;;;;;;;5090964;28;20390;-48
2022/12/13 08:34:50;;;;;;;6.47;4.15;;;;;;;;;;5088720;28;20040;-48
2022/12/13 08:37:16;;;;;;;7.47;4.55;;;;;;;;;;5087604;28;20466;-49
2022/12/13 08:39:43;;;;;;;6.57;4.15;;;;;;;;;;5083572;28;20024;-51
2022/12/13 08:42:16;;;;;;;7.80;4.95;;;;;;;;;;5088093;28;20518;-51
2022/12/13 08:44:42;;;;;;;6.78;4.72;;;;;;;;;;5088427;28;20046;-48
2022/12/13 08:47:08;;;;;;;7.10;4.20;;;;;;;;;;5087908;28;20032;-49
2022/12/13 08:49:34;;;;;;;7.03;4.75;;;;;;;;;;5087976;28;20332;-46
2022/12/13 08:52:00;;;;;;;8.45;5.07;;;;;;;;;;5088404;28;20027;-49
2022/12/13 08:54:26;;;;;;;6.57;4.28;;;;;;;;;;5088641;28;20035;-48
2022/12/13 08:56:52;;;;;;;8.48;5.05;;;;;;;;;;5087980;28;20060;-47
2022/12/13 08:59:18;;;;;;;7.45;4.43;;;;;;;;;;5088064;28;20063;-49
2022/12/13 09:01:45;;;;;;;7.63;4.57;;;;;;;;;;5087950;28;20024;-47
2022/12/13 09:04:11;;;;;;;7.47;5.00;;;;;;;;;;5087996;28;20028;-47
2022/12/13 09:06:37;;;;;;;7.43;4.82;;;;;;;;;;5069724;28;20028;-49
2022/12/13 09:09:03;;;;;;;8.23;4.93;;;;;;;;;;5088139;28;20138;-47
2022/12/13 09:11:30;;;;;;;6.63;4.53;;;;;;;;;;5087979;28;20027;-48
2022/12/13 09:13:56;;;;;;;7.22;4.82;;;;;;;;;;5087997;28;20508;-47
2022/12/13 09:16:23;;;;;;;8.75;5.50;;;;;;;;;;5087768;28;20111;-47
2022/12/13 09:18:50;;;;;;;10.70;6.75;;;;;;;;;;5087746;28;20309;-48
2022/12/13 09:21:16;;;;;;;13.20;7.53;;;;;;;;;;5087580;28;20078;-47
2022/12/13 09:23:42;;;;;;;12.27;7.30;;;;;;;;;;5087686;28;20428;-48
2022/12/13 09:26:08;;;;;;;10.20;6.63;;;;;;;;;;5087561;28;20035;-51
2022/12/13 09:28:36;;;;;;;11.15;6.32;;;;;;;;;;5087740;28;20059;-46
2022/12/13 09:31:09;;;;;;;9.13;5.75;;;;;;;;;;5075070;28;20089;-50
2022/12/13 09:33:36;;;;;;;9.25;5.80;;;;;;;;;;5067214;28;20029;-46
2022/12/13 09:36:05;;;;;;;7.80;5.15;;;;;;;;;;5067237;28;20036;-47
2022/12/13 09:38:32;;;;;;;7.97;4.95;;;;;;;;;;5067134;28;20073;-47
2022/12/13 09:40:59;;;;;;;6.32;4.53;;;;;;;;;;5067170;28;20064;-49
2022/12/13 09:43:31;;;;;;;7.10;4.82;;;;;;;;;;5067467;28;20062;-49
2022/12/13 09:45:58;;;;;;;6.13;4.28;;;;;;;;;;5067177;28;20024;-47
2022/12/13 09:48:24;;;;;;;6.70;4.65;;;;;;;;;;5049243;28;20059;-47
2022/12/13 09:50:51;;;;;;;8.10;5.28;;;;;;;;;;5067420;28;20032;-51
2022/12/13 09:53:18;;;;;;;6.80;4.70;;;;;;;;;;5067145;28;20020;-50
2022/12/13 09:55:46;;;;;;;6.72;4.60;;;;;;;;;;5066904;28;20032;-47
2022/12/13 09:58:20;;;;;;;8.25;5.50;;;;;;;;;;5066620;28;20111;-51
2022/12/13 10:00:48;;;;;;;8.70;5.40;;;;;;;;;;5066778;28;20072;-47
2022/12/13 10:03:14;;;;;;;9.20;5.90;;;;;;;;;;5048873;28;20016;-49
2022/12/13 10:05:43;;;;;;;10.35;6.15;;;;;;;;;;5066901;28;20028;-50
2022/12/13 10:08:17;;;;;;;8.38;5.80;;;;;;;;;;5066524;28;20024;-49
2022/12/13 10:10:43;;;;;;;9.45;5.95;;;;;;;;;;5066456;28;20926;-49
2022/12/13 10:13:24;;;;;;;9.73;5.85;;;;;;;;;;5066243;28;20032;-50
2022/12/13 10:15:52;;;;;;;7.82;5.45;;;;;;;;;;5066467;28;20140;-48
2022/12/13 10:18:24;;;;;;;9.15;5.90;;;;;;;;;;5066652;28;20129;-46
2022/12/13 10:20:51;;;;;;;7.38;4.90;;;;;;;;;;5066699;28;20035;-49
2022/12/13 10:23:17;;;;;;;6.75;4.70;;;;;;;;;;5066256;28;20024;-50
2022/12/13 10:25:45;;;;;;;7.15;5.25;;;;;;;;;;5066400;28;20029;-46
2022/12/13 10:28:12;;;;;;;5.80;4.30;;;;;;;;;;5066534;28;20404;-48
2022/12/13 10:30:42;;;;;;;6.65;4.35;;;;;;;;;;5066436;28;20021;-50
2022/12/13 10:33:25;;;;;;;8.43;5.38;;;;;;;;;;5065965;28;20032;-51
2022/12/13 10:36:03;;;;;;;8.48;5.20;;;;;;;;;;5066951;28;20060;-50
2022/12/13 10:38:31;;;;;;;8.27;5.55;;;;;;;;;;5066286;28;20036;-47
2022/12/13 10:40:57;;;;;;;9.00;5.63;;;;;;;;;;5066341;28;20321;-47
2022/12/13 10:43:25;;;;;;;7.63;5.45;;;;;;;;;;5066422;28;20106;-51
2022/12/13 10:45:57;;;;;;;7.03;5.03;;;;;;;;;;5066375;28;20463;-48
2022/12/13 10:48:26;;;;;;;7.63;4.95;;;;;;;;;;5066294;28;20056;-48
2022/12/13 10:51:11;;;;;;;8.07;5.30;;;;;;;;;;5066353;28;20569;-48
2022/12/13 10:53:48;;;;;;;8.50;5.47;;;;;;;;;;5066735;28;20115;-51
2022/12/13 10:56:18;;;;;;;8.95;5.82;;;;;;;;;;5066012;28;20349;-48
2022/12/13 10:58:45;;;;;;;8.48;5.97;;;;;;;;;;5066182;28;20029;-48
2022/12/13 11:01:14;;;;;;;8.13;5.75;;;;;;;;;;5065904;28;20526;-50
2022/12/13 11:03:40;;;;;;;8.25;5.53;;;;;;;;;;5066108;28;20024;-46
2022/12/13 11:06:16;;;;;;;7.97;5.55;;;;;;;;;;5066218;28;20095;-47
2022/12/13 11:08:43;;;;;;;7.72;5.45;;;;;;;;;;5066039;28;20484;-46
2022/12/13 11:11:11;;;;;;;8.75;5.70;;;;;;;;;;5068262;28;20028;-51
2022/12/13 11:13:41;;;;;;;8.68;5.85;;;;;;;;;;5070163;28;20050;-49
2022/12/13 11:16:24;;;;;;;8.57;6.07;;;;;;;;;;5089413;28;20032;-47
2022/12/13 11:18:54;;;;;;;9.57;5.80;;;;;;;;;;5089834;28;20031;-47
2022/12/13 11:21:25;;;;;;;8.75;5.88;;;;;;;;;;5089642;28;20112;-47
2022/12/13 11:23:53;;;;;;;8.25;5.90;;;;;;;;;;5090128;28;20035;-50
2022/12/13 11:26:21;;;;;;;7.47;5.00;;;;;;;;;;5089629;28;20039;-50
2022/12/13 11:28:49;;;;;;;8.05;5.75;;;;;;;;;;5090005;28;20031;-50
2022/12/13 11:31:16;;;;;;;9.45;5.53;;;;;;;;;;5089399;28;20455;-49
2022/12/13 11:33:42;;;;;;;8.75;5.93;;;;;;;;;;5089850;28;20434;-48
2022/12/13 11:36:23;;;;;;;10.30;6.03;;;;;;;;;;5090170;28;20441;-51
2022/12/13 11:38:52;;;;;;;8.65;5.90;;;;;;;;;;5089767;28;20032;-47
2022/12/13 11:41:22;;;;;;;10.25;6.75;;;;;;;;;;5089303;28;20423;-49
2022/12/13 11:43:59;;;;;;;8.75;5.88;;;;;;;;;;5089541;28;20031;-49
2022/12/13 11:46:34;;;;;;;11.95;7.43;;;;;;;;;;5089718;28;20048;-51
2022/12/13 11:49:02;;;;;;;11.60;6.70;;;;;;;;;;5089389;28;20047;-47
2022/12/13 11:51:37;;;;;;;12.18;7.53;;;;;;;;;;5071238;28;20396;-49
2022/12/13 11:54:05;;;;;;;11.13;6.65;;;;;;;;;;5089250;28;20020;-50
2022/12/13 11:56:41;;;;;;;10.13;6.35;;;;;;;;;;5089228;28;20031;-49
2022/12/13 11:59:16;;;;;;;9.40;6.35;;;;;;;;;;5089115;28;20051;-49
2022/12/13 12:02:01;;;;;;;9.75;6.18;;;;;;;;;;5089377;28;20107;-47
2022/12/13 12:04:36;;;;;;;9.23;6.13;;;;;;;;;;5089346;28;20039;-48
2022/12/13 12:07:20;;;;;;;11.52;6.82;;;;;;;;;;5089475;28;20549;-49
2022/12/13 12:10:05;;;;;;;10.13;6.20;;;;;;;;;;5089018;28;20031;-50
2022/12/13 12:12:34;;;;;;;9.63;5.82;;;;;;;;;;5089062;28;20775;-49
2022/12/13 12:15:00;;;;;;;10.25;6.10;;;;;;;;;;5088668;28;20032;-47
2022/12/13 12:17:26;;;;;;;9.10;5.95;;;;;;;;;;5089259;28;20034;-49
2022/12/13 12:19:53;;;;;;;7.85;4.88;;;;;;;;;;5088952;28;20095;-48
2022/12/13 12:22:19;;;;;;;8.18;5.40;;;;;;;;;;5088124;28;20035;-47
2022/12/13 12:25:04;;;;;;;7.95;5.13;;;;;;;;;;5088709;28;20029;-50
2022/12/13 12:27:39;;;;;;;8.73;5.90;;;;;;;;;;5088685;28;20039;-49
2022/12/13 12:30:11;;;;;;;10.65;6.13;;;;;;;;;;5088685;28;20059;-48
2022/12/13 12:32:40;;;;;;;10.60;6.40;;;;;;;;;;5088487;28;20035;-47
2022/12/13 12:35:25;;;;;;;9.15;5.80;;;;;;;;;;5088409;28;20031;-48
2022/12/13 12:38:04;;;;;;;8.32;5.82;;;;;;;;;;5088617;28;20082;-49
2022/12/13 12:40:39;;;;;;;8.35;5.57;;;;;;;;;;5088336;28;20495;-51
2022/12/13 12:43:10;;;;;;;8.93;5.72;;;;;;;;;;5088452;28;20028;-47
2022/12/13 12:46:08;;;;;;;8.15;5.45;;;;;;;;;;5088786;28;20450;-50
2022/12/13 12:48:34;;;;;;;7.90;5.28;;;;;;;;;;5043706;28;20132;-47
2022/12/13 12:51:29;;;;;;;8.10;5.40;;;;;;;;;;5088643;28;20537;-50
2022/12/13 12:54:11;;;;;;;6.75;4.82;;;;;;;;;;5015805;28;20046;-51
2022/12/13 12:56:38;;;;;;;7.65;5.00;;;;;;;;;;5088106;28;20040;-49
2022/12/13 12:59:20;;;;;;;7.25;4.78;;;;;;;;;;5088420;28;20024;-49
2022/12/13 13:01:54;;;;;;;6.03;4.85;;;;;;;;;;5087800;28;20016;-50
2022/12/13 13:04:24;;;;;;;6.65;4.72;;;;;;;;;;5088000;28;20031;-50
2022/12/13 13:06:57;;;;;;;7.05;4.32;;;;;;;;;;5088013;28;20118;-50
2022/12/13 13:09:23;;;;;;;7.40;4.72;;;;;;;;;;5088004;28;20510;-51
2022/12/13 13:11:50;;;;;;;7.35;4.60;;;;;;;;;;5087525;28;20024;-52
2022/12/13 13:14:32;;;;;;;8.35;5.22;;;;;;;;;;5087684;28;20105;-51
2022/12/13 13:16:59;;;;;;;6.10;4.60;;;;;;;;;;5087814;28;20028;-49
2022/12/13 13:19:31;;;;;;;5.13;3.95;;;;;;;;;;5088294;28;20032;-48
2022/12/13 13:21:58;;;;;;;6.00;4.25;;;;;;;;;;5087688;28;20016;-49
2022/12/13 13:24:25;;;;;;;5.82;4.30;;;;;;;;;;5087491;28;20565;-48
2022/12/13 13:26:55;;;;;;;5.60;4.20;;;;;;;;;;5087544;28;20394;-51
2022/12/13 13:29:27;;;;;;;5.18;3.83;;;;;;;;;;5087605;28;20028;-47
2022/12/13 13:32:05;;;;;;;6.38;4.57;;;;;;;;;;5087262;28;20016;-49
2022/12/13 13:34:36;;;;;;;5.40;3.75;;;;;;;;;;5087033;28;20024;-51
2022/12/13 13:37:23;;;;;;;6.00;4.30;;;;;;;;;;5087300;28;20081;-48
2022/12/13 13:39:52;;;;;;;5.05;4.00;;;;;;;;;;5076393;28;20044;-51
2022/12/13 13:42:23;;;;;;;5.03;3.67;;;;;;;;;;5087067;28;20032;-51
2022/12/13 13:44:50;;;;;;;5.45;3.67;;;;;;;;;;5087452;28;20786;-48
2022/12/13 13:47:19;;;;;;;5.07;3.83;;;;;;;;;;5087096;28;20035;-49
2022/12/13 13:49:58;;;;;;;4.40;3.40;;;;;;;;;;5087379;28;20032;-49
2022/12/13 13:52:24;;;;;;;5.22;3.72;;;;;;;;;;5087469;28;20016;-49
2022/12/13 13:55:09;;;;;;;4.47;3.30;;;;;;;;;;5086939;28;20040;-50
2022/12/13 13:57:55;;;;;;;5.00;3.53;;;;;;;;;;5086933;28;20050;-48
2022/12/13 14:00:40;;;;;;;5.35;4.22;;;;;;;;;;5086775;28;20103;-51
2022/12/13 14:03:24;;;;;;;5.35;3.70;;;;;;;;;;5086968;28;20031;-49
2022/12/13 14:05:50;;;;;;;;;;;;;;;;;;5087491;28;20062;-51
2022/12/13 14:08:39;;;;;;;4.35;3.00;;;;;;;;;;5086624;28;20374;-50
2022/12/13 14:11:18;;;;;;;5.55;3.65;;;;;;;;;;5057236;28;20043;-48
2022/12/13 14:14:02;;;;;;;5.07;3.63;;;;;;;;;;5104215;28;20027;-48
2022/12/13 14:16:28;;;;;;;6.68;3.65;;;;;;;;;;5106591;28;20028;-50
2022/12/13 14:18:54;;;;;;;4.40;3.35;;;;;;;;;;5101994;28;20466;-52
2022/12/13 14:21:36;;;;;;;4.97;3.20;;;;;;;;;;5088664;28;20131;-51
2022/12/13 14:24:20;;;;;;;5.10;3.45;;;;;;;;;;5072794;28;20478;-50
2022/12/13 14:26:46;;;;;;;4.28;3.00;;;;;;;;;;5105945;28;20027;-50
2022/12/13 14:29:14;;;;;;;4.15;3.10;;;;;;;;;;5107012;28;20020;-51
2022/12/13 14:31:45;;;;;;;5.63;3.70;;;;;;;;;;5106691;28;20146;-49
2022/12/13 14:34:31;;;;;;;4.55;3.22;;;;;;;;;;5103448;28;20032;-48
2022/12/13 14:37:18;;;;;;;6.32;4.63;;;;;;;;;;5098227;28;20030;-50
2022/12/13 14:39:44;;;;;;;6.43;4.43;;;;;;;;;;5107962;28;20047;-53
2022/12/13 14:42:28;;;;;;;6.55;4.22;;;;;;;;;;5107970;28;20062;-52
2022/12/13 14:44:55;;;;;;;8.20;4.88;;;;;;;;;;5108421;28;20134;-52
2022/12/13 14:47:22;;;;;;;5.28;3.85;;;;;;;;;;5109126;28;20114;-48
2022/12/13 14:49:51;;;;;;;4.85;3.50;;;;;;;;;;5094507;28;20036;-49
2022/12/13 14:52:24;;;;;;;5.82;3.63;;;;;;;;;;5105529;28;20031;-52
2022/12/13 14:55:03;;;;;;;5.22;3.45;;;;;;;;;;5111099;28;20418;-52
2022/12/13 14:57:30;;;;;;;5.68;4.00;;;;;;;;;;5112391;28;20490;-50
2022/12/13 14:59:57;;;;;;;5.70;3.90;;;;;;;;;;5112032;28;20038;-50
2022/12/13 15:02:28;;;;;;;5.30;3.65;;;;;;;;;;5110498;28;20027;-49
2022/12/13 15:04:55;;;;;;;6.28;4.13;;;;;;;;;;5111090;28;20026;-51
2022/12/13 15:07:21;;;;;;;6.35;4.03;;;;;;;;;;5110678;28;20362;-49
2022/12/13 15:09:50;;;;;;;5.97;4.30;;;;;;;;;;5110578;28;20494;-48
2022/12/13 15:12:18;;;;;;;5.82;3.80;;;;;;;;;;5110308;28;20062;-52
2022/12/13 15:14:52;;;;;;;5.85;4.13;;;;;;;;;;5102185;28;20507;-51
2022/12/13 15:17:32;;;;;;;3.63;2.90;;;;;;;;;;5089914;28;20207;-52
2022/12/13 15:19:59;;;;;;;5.18;3.38;;;;;;;;;;5090504;28;20028;-51
2022/12/13 15:22:25;;;;;;;4.63;3.40;;;;;;;;;;5089836;28;20024;-52
2022/12/13 15:24:52;;;;;;;4.75;3.40;;;;;;;;;;5089986;28;20179;-53
2022/12/13 15:27:21;;;;;;;4.38;2.95;;;;;;;;;;5090098;28;20039;-49
2022/12/13 15:29:48;;;;;;;5.03;3.10;;;;;;;;;;5089931;28;20377;-51
2022/12/13 15:32:17;;;;;;;5.75;3.75;;;;;;;;;;5089778;28;20070;-52
2022/12/13 15:34:49;;;;;;;4.57;3.58;;;;;;;;;;5089797;28;20521;-52
2022/12/13 15:37:22;;;;;;;4.05;3.05;;;;;;;;;;5089205;28;20089;-52
2022/12/13 15:39:48;;;;;;;6.03;3.85;;;;;;;;;;5087586;28;20555;-54
2022/12/13 15:42:20;;;;;;;5.78;3.75;;;;;;;;;;5089394;28;20069;-53
2022/12/13 15:44:49;;;;;;;5.10;3.65;;;;;;;;;;5089587;28;20024;-53
2022/12/13 15:47:17;;;;;;;5.45;3.90;;;;;;;;;;5089244;28;20054;-51
2022/12/13 15:49:51;;;;;;;4.80;3.15;;;;;;;;;;5090124;28;20024;-52
2022/12/13 15:52:18;;;;;;;;;;;;;;;;;;5089327;28;20486;-49
2022/12/13 15:55:04;;;;;;;5.75;3.47;;;;;;;;;;5089492;28;19904;-53
2022/12/13 15:57:32;;;;;;;3.95;3.15;;;;;;;;;;5046799;28;20082;-49
2022/12/13 16:00:06;;;;;;;4.28;3.22;;;;;;;;;;5089623;28;20031;-49
2022/12/13 16:02:33;;;;;;;5.03;3.42;;;;;;;;;;5089087;28;20035;-52
2022/12/13 16:05:06;;;;;;;5.43;3.63;;;;;;;;;;5089308;28;20427;-53
2022/12/13 16:07:39;;;;;;;5.07;3.40;;;;;;;;;;5088839;28;20409;-52
2022/12/13 16:10:06;;;;;;;5.40;3.50;;;;;;;;;;5089108;28;20546;-53
2022/12/13 16:12:42;;;;;;;6.25;4.13;;;;;;;;;;5088986;28;20103;-53
2022/12/13 16:15:18;;;;;;;6.38;4.32;;;;;;;;;;5100709;28;20042;-52
2022/12/13 16:17:44;;;;;;;6.45;4.45;;;;;;;;;;5109392;28;20135;-52
2022/12/13 16:20:16;;;;;;;8.00;5.05;;;;;;;;;;5109403;28;20569;-50
2022/12/13 16:22:42;;;;;;;6.53;4.38;;;;;;;;;;5108994;28;20059;-53
2022/12/13 16:25:12;;;;;;;8.07;5.15;;;;;;;;;;5109317;28;20511;-52
2022/12/13 16:27:38;;;;;;;7.40;4.28;;;;;;;;;;5109086;28;20034;-50
2022/12/13 16:30:12;;;;;;;8.38;4.95;;;;;;;;;;5109279;28;20055;-52
2022/12/13 16:32:40;;;;;;;6.93;4.63;;;;;;;;;;5109034;28;20110;-50
2022/12/13 16:35:06;;;;;;;6.70;4.05;;;;;;;;;;5109158;28;20328;-53
2022/12/13 16:37:32;;;;;;;7.28;4.65;;;;;;;;;;5108684;28;20028;-54
2022/12/13 16:40:00;;;;;;;6.75;4.20;;;;;;;;;;5109258;28;20024;-53
2022/12/13 16:42:27;;;;;;;5.60;3.75;;;;;;;;;;5108931;28;20034;-51
2022/12/13 16:44:55;;;;;;;7.22;4.45;;;;;;;;;;5108920;28;20091;-49
2022/12/13 16:47:20;;;;;;;7.35;4.07;;;;;;;;;;5108847;28;20514;-54
2022/12/13 16:49:48;;;;;;;6.47;4.05;;;;;;;;;;5108585;28;20034;-52
2022/12/13 16:52:15;;;;;;;8.55;4.80;;;;;;;;;;5108336;28;20227;-53
2022/12/13 16:54:41;;;;;;;6.93;4.40;;;;;;;;;;5108578;28;20025;-50
2022/12/13 16:57:08;;;;;;;7.07;4.30;;;;;;;;;;5108520;28;20027;-52
2022/12/13 16:59:35;;;;;;;6.85;4.25;;;;;;;;;;5108589;28;20027;-53
2022/12/13 17:02:01;;;;;;;6.55;4.40;;;;;;;;;;5108398;28;20103;-52
2022/12/13 17:04:27;;;;;;;7.82;4.63;;;;;;;;;;5108570;28;20169;-51
2022/12/13 17:06:53;;;;;;;6.28;4.38;;;;;;;;;;5108167;28;20540;-52
2022/12/13 17:09:19;;;;;;;6.65;4.32;;;;;;;;;;5108163;28;20094;-52
2022/12/13 17:11:45;;;;;;;5.75;3.65;;;;;;;;;;5108393;28;20024;-53
2022/12/13 17:14:11;;;;;;;6.43;4.10;;;;;;;;;;5108207;28;20031;-51
2022/12/13 17:16:37;;;;;;;6.47;4.53;;;;;;;;;;5108137;28;20027;-51
2022/12/13 17:19:03;;;;;;;7.20;4.13;;;;;;;;;;5107749;28;20378;-52
2022/12/13 17:21:29;;;;;;;5.68;3.95;;;;;;;;;;5107736;28;20035;-53
2022/12/13 17:23:59;;;;;;;5.97;3.65;;;;;;;;;;5108418;28;20529;-52
2022/12/13 17:26:26;;;;;;;5.80;3.78;;;;;;;;;;5108316;28;20081;-53
2022/12/13 17:28:52;;;;;;;6.63;3.75;;;;;;;;;;5107874;28;20035;-49
2022/12/13 17:31:18;;;;;;;5.45;3.42;;;;;;;;;;5107941;28;20027;-51
2022/12/13 17:33:45;;;;;;;4.13;3.30;;;;;;;;;;5107757;28;20099;-52
2022/12/13 17:36:11;;;;;;;6.10;3.45;;;;;;;;;;5107521;28;20482;-53
2022/12/13 17:38:41;;;;;;;6.45;3.78;;;;;;;;;;5107530;28;20031;-53
2022/12/13 17:41:07;;;;;;;6.13;3.50;;;;;;;;;;5107834;28;20038;-51
2022/12/13 17:43:33;;;;;;;5.80;3.67;;;;;;;;;;5107553;28;20016;-52
2022/12/13 17:46:03;;;;;;;6.07;3.92;;;;;;;;;;5107807;28;20032;-51
2022/12/13 17:48:30;;;;;;;6.55;3.97;;;;;;;;;;5107698;28;20031;-51
2022/12/13 17:50:56;;;;;;;11.15;5.20;;;;;;;;;;5107591;28;20043;-51
2022/12/13 17:53:22;;;;;;;8.45;4.82;;;;;;;;;;5107391;28;20035;-52
2022/12/13 17:55:55;;;;;;;6.47;4.10;;;;;;;;;;5107581;28;20182;-52
2022/12/13 17:58:21;;;;;;;6.53;4.57;;;;;;;;;;5107173;28;20023;-53
2022/12/13 18:00:47;;;;;;;7.28;4.40;;;;;;;;;;5107519;28;20092;-51
2022/12/13 18:03:13;;;;;;;6.35;4.35;;;;;;;;;;5106974;28;20028;-51
2022/12/13 18:05:40;;;;;;;5.68;3.83;;;;;;;;;;5107251;28;20111;-52
2022/12/13 18:08:06;;;;;;;6.30;4.18;;;;;;;;;;5107077;28;20098;-54
2022/12/13 18:10:32;;;;;;;6.63;4.20;;;;;;;;;;5107246;28;20036;-53
2022/12/13 18:12:59;;;;;;;7.45;4.28;;;;;;;;;;5107402;28;20090;-53
2022/12/13 18:15:26;;;;;;;5.47;3.90;;;;;;;;;;5107456;28;20460;-50
2022/12/13 18:17:51;;;;;;;5.93;3.63;;;;;;;;;;5106963;28;20115;-54
2022/12/13 18:20:17;;;;;;;5.50;3.53;;;;;;;;;;5106499;28;20107;-53
2022/12/13 18:22:43;;;;;;;5.22;3.58;;;;;;;;;;5106787;28;20474;-51
2022/12/13 18:25:09;;;;;;;4.68;3.53;;;;;;;;;;5106861;28;20053;-52
2022/12/13 18:27:36;;;;;;;4.97;3.50;;;;;;;;;;5107075;28;20119;-51
2022/12/13 18:30:03;;;;;;;4.93;3.63;;;;;;;;;;5106792;28;20055;-50
2022/12/13 18:32:29;;;;;;;5.55;3.80;;;;;;;;;;5107507;28;20182;-51
2022/12/13 18:34:55;;;;;;;5.97;4.03;;;;;;;;;;5107075;28;20106;-52
2022/12/13 18:37:21;;;;;;;6.40;4.10;;;;;;;;;;5106608;28;20045;-52
2022/12/13 18:39:47;;;;;;;6.13;3.97;;;;;;;;;;5107020;28;20024;-50
2022/12/13 18:42:13;;;;;;;5.30;3.90;;;;;;;;;;5106600;28;20367;-49
2022/12/13 18:44:39;;;;;;;6.32;4.18;;;;;;;;;;5106833;28;20103;-50
2022/12/13 18:47:05;;;;;;;5.28;3.90;;;;;;;;;;5106861;28;20027;-50
2022/12/13 18:49:31;;;;;;;6.53;4.45;;;;;;;;;;5106806;28;20024;-51
2022/12/13 18:51:57;;;;;;;5.68;3.85;;;;;;;;;;5088627;28;20055;-50
2022/12/13 18:54:24;;;;;;;5.25;3.60;;;;;;;;;;5106728;28;20471;-53
2022/12/13 18:56:50;;;;;;;5.28;3.40;;;;;;;;;;5106726;28;20031;-50
2022/12/13 18:59:16;;;;;;;6.22;3.83;;;;;;;;;;5106635;28;20088;-51
2022/12/13 19:01:43;;;;;;;5.38;3.72;;;;;;;;;;5107762;28;20023;-52
2022/12/13 19:04:09;;;;;;;6.47;4.25;;;;;;;;;;5105372;28;20059;-54
2022/12/13 19:06:35;;;;;;;6.45;4.75;;;;;;;;;;5096665;28;20063;-53
2022/12/13 19:09:01;;;;;;;7.22;4.70;;;;;;;;;;5104843;28;20490;-52
2022/12/13 19:11:28;;;;;;;7.32;4.10;;;;;;;;;;5106702;28;20031;-49
2022/12/13 19:13:55;;;;;;;7.00;4.35;;;;;;;;;;5104598;28;20034;-51
2022/12/13 19:16:24;;;;;;;6.38;4.25;;;;;;;;;;5105752;28;20031;-50
2022/12/13 19:18:50;;;;;;;5.20;3.80;;;;;;;;;;5102264;28;20537;-49
2022/12/13 19:21:17;;;;;;;5.40;3.88;;;;;;;;;;5101956;28;20055;-50
2022/12/13 19:23:45;;;;;;;6.30;4.50;;;;;;;;;;5103134;28;20031;-51
2022/12/13 19:26:12;;;;;;;5.63;4.00;;;;;;;;;;5104050;28;20032;-50
2022/12/13 19:28:40;;;;;;;5.43;3.95;;;;;;;;;;5103836;28;20035;-51
2022/12/13 19:31:06;;;;;;;5.95;4.20;;;;;;;;;;5101025;28;20038;-50
2022/12/13 19:33:32;;;;;;;5.13;3.53;;;;;;;;;;5108853;28;20066;-51
2022/12/13 19:35:58;;;;;;;6.43;4.13;;;;;;;;;;5089411;28;20116;-46
2022/12/13 19:38:25;;;;;;;5.40;4.07;;;;;;;;;;5109630;28;20035;-50
2022/12/13 19:40:51;;;;;;;5.97;3.83;;;;;;;;;;5095243;28;20099;-51
2022/12/13 19:43:19;;;;;;;5.80;4.03;;;;;;;;;;5088334;28;20028;-49
2022/12/13 19:45:46;;;;;;;5.25;3.70;;;;;;;;;;5104663;28;20408;-48
2022/12/13 19:48:13;;;;;;;5.10;3.85;;;;;;;;;;5088982;28;20036;-50
2022/12/13 19:50:39;;;;;;;5.40;4.05;;;;;;;;;;5089996;28;20032;-46
2022/12/13 19:53:05;;;;;;;6.07;4.25;;;;;;;;;;5088948;28;20063;-47
2022/12/13 19:55:31;;;;;;;5.20;3.92;;;;;;;;;;5089797;28;20028;-50
2022/12/13 19:57:58;;;;;;;4.90;3.67;;;;;;;;;;5107942;28;20042;-50
2022/12/13 20:00:24;;;;;;;5.13;3.53;;;;;;;;;;5107777;28;20023;-51